sensor_id;sensor_type;location;lat;lon;timestamp;pressure;altitude;pressure_sealevel;temperature;humidity
83815;BME280;73829;53.826;-3.034;2023-12-04T00:00:37;100205.08;;;17.33;45.32
83815;BME280;73829;53.826;-3.034;2023-12-04T00:03:28;100198.20;;;17.33;45.25
83815;BME280;73829;53.826;-3.034;2023-12-04T00:05:58;100192.84;;;17.31;45.26
83815;BME280;73829;53.826;-3.034;2023-12-04T00:08:29;100191.95;;;17.31;45.23
83815;BME280;73829;53.826;-3.034;2023-12-04T00:10:58;100188.02;;;17.29;45.28
83815;BME280;73829;53.826;-3.034;2023-12-04T00:13:29;100186.11;;;17.29;45.20
83815;BME280;73829;53.826;-3.034;2023-12-04T00:15:58;100179.39;;;17.26;45.33
83815;BME280;73829;53.826;-3.034;2023-12-04T00:18:29;100178.86;;;17.26;45.32
83815;BME280;73829;53.826;-3.034;2023-12-04T00:21:00;100168.94;;;17.24;45.23
83815;BME280;73829;53.826;-3.034;2023-12-04T00:23:31;100167.09;;;17.23;45.25
83815;BME280;73829;53.826;-3.034;2023-12-04T00:26:00;100162.77;;;17.21;45.35
83815;BME280;73829;53.826;-3.034;2023-12-04T00:28:35;100162.25;;;17.21;45.15
83815;BME280;73829;53.826;-3.034;2023-12-04T00:31:08;100164.65;;;17.19;45.32
83815;BME280;73829;53.826;-3.034;2023-12-04T00:33:39;100159.10;;;17.17;45.27
83815;BME280;73829;53.826;-3.034;2023-12-04T00:36:09;100154.05;;;17.16;45.38
83815;BME280;73829;53.826;-3.034;2023-12-04T00:38:40;100146.30;;;17.16;45.23
83815;BME280;73829;53.826;-3.034;2023-12-04T00:41:09;100141.48;;;17.14;45.34
83815;BME280;73829;53.826;-3.034;2023-12-04T00:43:41;100144.09;;;17.14;45.25
83815;BME280;73829;53.826;-3.034;2023-12-04T00:46:12;100137.35;;;17.12;45.39
83815;BME280;73829;53.826;-3.034;2023-12-04T00:48:42;100137.10;;;17.10;45.44
83815;BME280;73829;53.826;-3.034;2023-12-04T00:51:15;100134.52;;;17.09;45.45
83815;BME280;73829;53.826;-3.034;2023-12-04T00:53:46;100128.76;;;17.09;45.33
83815;BME280;73829;53.826;-3.034;2023-12-04T00:56:17;100124.55;;;17.08;45.39
83815;BME280;73829;53.826;-3.034;2023-12-04T00:58:50;100119.17;;;17.07;45.27
83815;BME280;73829;53.826;-3.034;2023-12-04T01:01:20;100116.58;;;17.06;45.46
83815;BME280;73829;53.826;-3.034;2023-12-04T01:03:50;100113.10;;;17.05;45.40
83815;BME280;73829;53.826;-3.034;2023-12-04T01:06:24;100106.76;;;17.06;45.29
83815;BME280;73829;53.826;-3.034;2023-12-04T01:08:56;100104.55;;;17.04;45.31
83815;BME280;73829;53.826;-3.034;2023-12-04T01:11:27;100100.90;;;17.03;45.39
83815;BME280;73829;53.826;-3.034;2023-12-04T01:13:58;100096.27;;;17.01;45.41
83815;BME280;73829;53.826;-3.034;2023-12-04T01:16:27;100089.45;;;17.00;45.32
83815;BME280;73829;53.826;-3.034;2023-12-04T01:18:58;100089.25;;;17.01;45.35
83815;BME280;73829;53.826;-3.034;2023-12-04T01:21:29;100085.45;;;16.99;45.35
83815;BME280;73829;53.826;-3.034;2023-12-04T01:24:00;100086.74;;;16.98;45.42
83815;BME280;73829;53.826;-3.034;2023-12-04T01:26:31;100082.95;;;16.97;45.41
83815;BME280;73829;53.826;-3.034;2023-12-04T01:29:00;100078.06;;;16.96;45.32
83815;BME280;73829;53.826;-3.034;2023-12-04T01:31:31;100073.77;;;16.97;45.31
83815;BME280;73829;53.826;-3.034;2023-12-04T01:34:03;100069.30;;;16.96;45.39
83815;BME280;73829;53.826;-3.034;2023-12-04T01:36:34;100067.45;;;16.94;45.33
83815;BME280;73829;53.826;-3.034;2023-12-04T01:39:03;100062.41;;;16.93;45.41
83815;BME280;73829;53.826;-3.034;2023-12-04T01:41:34;100057.61;;;16.94;45.39
83815;BME280;73829;53.826;-3.034;2023-12-04T01:44:03;100056.15;;;16.92;45.37
83815;BME280;73829;53.826;-3.034;2023-12-04T01:46:35;100048.76;;;16.92;45.24
83815;BME280;73829;53.826;-3.034;2023-12-04T01:49:06;100051.48;;;16.90;45.33
83815;BME280;73829;53.826;-3.034;2023-12-04T01:51:37;100044.90;;;16.88;45.50
83815;BME280;73829;53.826;-3.034;2023-12-04T01:54:08;100045.46;;;16.87;45.48
83815;BME280;73829;53.826;-3.034;2023-12-04T01:56:39;100037.64;;;16.86;45.48
83815;BME280;73829;53.826;-3.034;2023-12-04T01:59:10;100036.26;;;16.85;45.47
83815;BME280;73829;53.826;-3.034;2023-12-04T02:01:41;100033.30;;;16.85;45.37
83815;BME280;73829;53.826;-3.034;2023-12-04T02:04:13;100034.72;;;16.84;45.47
83815;BME280;73829;53.826;-3.034;2023-12-04T02:06:44;100030.95;;;16.83;45.38
83815;BME280;73829;53.826;-3.034;2023-12-04T02:09:15;100029.38;;;16.83;45.45
83815;BME280;73829;53.826;-3.034;2023-12-04T02:11:46;100030.45;;;16.82;45.53
83815;BME280;73829;53.826;-3.034;2023-12-04T02:14:17;100027.17;;;16.81;45.35
83815;BME280;73829;53.826;-3.034;2023-12-04T02:16:46;100024.91;;;16.80;45.48
83815;BME280;73829;53.826;-3.034;2023-12-04T02:19:17;100023.42;;;16.82;45.33
83815;BME280;73829;53.826;-3.034;2023-12-04T02:21:47;100021.43;;;16.80;45.40
83815;BME280;73829;53.826;-3.034;2023-12-04T02:24:18;100020.00;;;16.80;45.24
83815;BME280;73829;53.826;-3.034;2023-12-04T02:26:47;100021.33;;;16.78;45.47
83815;BME280;73829;53.826;-3.034;2023-12-04T02:29:23;100016.06;;;16.78;45.44
83815;BME280;73829;53.826;-3.034;2023-12-04T02:31:56;100012.69;;;16.76;45.33
83815;BME280;73829;53.826;-3.034;2023-12-04T02:34:28;100009.91;;;16.74;45.41
83815;BME280;73829;53.826;-3.034;2023-12-04T02:37:02;100003.81;;;16.74;45.41
83815;BME280;73829;53.826;-3.034;2023-12-04T02:39:33;100003.34;;;16.73;45.55
83815;BME280;73829;53.826;-3.034;2023-12-04T02:42:02;100001.43;;;16.72;45.41
83815;BME280;73829;53.826;-3.034;2023-12-04T02:44:33;99993.00;;;16.72;45.43
83815;BME280;73829;53.826;-3.034;2023-12-04T02:47:05;99993.43;;;16.70;45.48
83815;BME280;73829;53.826;-3.034;2023-12-04T02:49:36;99991.22;;;16.69;45.51
83815;BME280;73829;53.826;-3.034;2023-12-04T02:52:07;99986.88;;;16.68;45.57
83815;BME280;73829;53.826;-3.034;2023-12-04T02:54:36;99981.52;;;16.66;45.51
83815;BME280;73829;53.826;-3.034;2023-12-04T02:57:07;99981.98;;;16.67;45.50
83815;BME280;73829;53.826;-3.034;2023-12-04T02:59:38;99978.42;;;16.65;45.39
83815;BME280;73829;53.826;-3.034;2023-12-04T03:02:09;99977.24;;;16.64;45.43
83815;BME280;73829;53.826;-3.034;2023-12-04T03:04:38;99978.52;;;16.63;45.51
83815;BME280;73829;53.826;-3.034;2023-12-04T03:07:09;99978.29;;;16.64;45.45
83815;BME280;73829;53.826;-3.034;2023-12-04T03:09:38;99970.50;;;16.61;45.50
83815;BME280;73829;53.826;-3.034;2023-12-04T03:12:09;99972.77;;;16.62;45.51
83815;BME280;73829;53.826;-3.034;2023-12-04T03:14:39;99968.47;;;16.60;45.50
83815;BME280;73829;53.826;-3.034;2023-12-04T03:17:10;99968.43;;;16.61;45.53
83815;BME280;73829;53.826;-3.034;2023-12-04T03:19:41;99969.80;;;16.59;45.62
83815;BME280;73829;53.826;-3.034;2023-12-04T03:22:11;99964.96;;;16.57;45.50
83815;BME280;73829;53.826;-3.034;2023-12-04T03:24:42;99962.80;;;16.58;45.52
83815;BME280;73829;53.826;-3.034;2023-12-04T03:27:13;99958.70;;;16.56;45.62
83815;BME280;73829;53.826;-3.034;2023-12-04T03:29:42;99956.45;;;16.55;45.52
83815;BME280;73829;53.826;-3.034;2023-12-04T03:32:13;99955.02;;;16.55;45.53
83815;BME280;73829;53.826;-3.034;2023-12-04T03:34:44;99950.43;;;16.52;45.53
83815;BME280;73829;53.826;-3.034;2023-12-04T03:37:13;99945.20;;;16.52;45.62
83815;BME280;73829;53.826;-3.034;2023-12-04T03:39:44;99945.85;;;16.52;45.58
83815;BME280;73829;53.826;-3.034;2023-12-04T03:42:14;99943.52;;;16.50;45.60
83815;BME280;73829;53.826;-3.034;2023-12-04T03:44:44;99939.80;;;16.51;45.56
83815;BME280;73829;53.826;-3.034;2023-12-04T03:47:15;99936.58;;;16.49;45.57
83815;BME280;73829;53.826;-3.034;2023-12-04T03:49:46;99932.07;;;16.47;45.49
83815;BME280;73829;53.826;-3.034;2023-12-04T03:52:17;99927.55;;;16.46;45.62
83815;BME280;73829;53.826;-3.034;2023-12-04T03:54:48;99926.19;;;16.46;45.62
83815;BME280;73829;53.826;-3.034;2023-12-04T03:57:17;99920.95;;;16.45;45.62
83815;BME280;73829;53.826;-3.034;2023-12-04T03:59:48;99922.30;;;16.46;45.60
83815;BME280;73829;53.826;-3.034;2023-12-04T04:02:17;99917.29;;;16.44;45.62
83815;BME280;73829;53.826;-3.034;2023-12-04T04:04:48;99913.73;;;16.45;45.50
83815;BME280;73829;53.826;-3.034;2023-12-04T04:07:17;99908.95;;;16.43;45.56
83815;BME280;73829;53.826;-3.034;2023-12-04T04:09:48;99906.29;;;16.43;45.48
83815;BME280;73829;53.826;-3.034;2023-12-04T04:12:18;99899.54;;;16.41;45.47
83815;BME280;73829;53.826;-3.034;2023-12-04T04:14:49;99898.29;;;16.42;45.52
83815;BME280;73829;53.826;-3.034;2023-12-04T04:17:18;99894.34;;;16.40;45.68
83815;BME280;73829;53.826;-3.034;2023-12-04T04:19:49;99890.52;;;16.39;45.49
83815;BME280;73829;53.826;-3.034;2023-12-04T04:22:18;99888.88;;;16.37;45.64
83815;BME280;73829;53.826;-3.034;2023-12-04T04:24:50;99881.80;;;16.38;45.61
83815;BME280;73829;53.826;-3.034;2023-12-04T04:27:21;99881.58;;;16.36;45.64
83815;BME280;73829;53.826;-3.034;2023-12-04T04:29:50;99873.94;;;16.34;45.65
83815;BME280;73829;53.826;-3.034;2023-12-04T04:32:21;99877.73;;;16.35;45.59
83815;BME280;73829;53.826;-3.034;2023-12-04T04:34:50;99872.41;;;16.33;45.62
83815;BME280;73829;53.826;-3.034;2023-12-04T04:37:22;99869.73;;;16.34;45.64
83815;BME280;73829;53.826;-3.034;2023-12-04T04:39:52;99866.68;;;16.32;45.69
83815;BME280;73829;53.826;-3.034;2023-12-04T04:42:24;99862.33;;;16.31;45.70
83815;BME280;73829;53.826;-3.034;2023-12-04T04:44:54;99858.86;;;16.30;45.64
83815;BME280;73829;53.826;-3.034;2023-12-04T04:47:24;99856.80;;;16.30;45.67
83815;BME280;73829;53.826;-3.034;2023-12-04T04:49:55;99853.79;;;16.30;45.62
83815;BME280;73829;53.826;-3.034;2023-12-04T04:52:24;99857.87;;;16.29;45.56
83815;BME280;73829;53.826;-3.034;2023-12-04T04:54:55;99852.59;;;16.29;45.61
83815;BME280;73829;53.826;-3.034;2023-12-04T04:57:24;99847.80;;;16.27;45.61
83815;BME280;73829;53.826;-3.034;2023-12-04T04:59:55;99848.96;;;16.28;45.63
83815;BME280;73829;53.826;-3.034;2023-12-04T05:02:24;99844.70;;;16.26;45.67
83815;BME280;73829;53.826;-3.034;2023-12-04T05:04:55;99837.29;;;16.27;45.61
83815;BME280;73829;53.826;-3.034;2023-12-04T05:07:26;99838.08;;;16.25;45.66
83815;BME280;73829;53.826;-3.034;2023-12-04T05:09:57;99837.98;;;16.24;45.65
83815;BME280;73829;53.826;-3.034;2023-12-04T05:12:26;99836.61;;;16.23;45.74
83815;BME280;73829;53.826;-3.034;2023-12-04T05:14:57;99833.95;;;16.23;45.65
83815;BME280;73829;53.826;-3.034;2023-12-04T05:17:28;99833.66;;;16.22;45.67
83815;BME280;73829;53.826;-3.034;2023-12-04T05:19:59;99828.64;;;16.20;45.74
83815;BME280;73829;53.826;-3.034;2023-12-04T05:22:30;99825.54;;;16.19;45.66
83815;BME280;73829;53.826;-3.034;2023-12-04T05:25:01;99824.84;;;16.19;45.71
83815;BME280;73829;53.826;-3.034;2023-12-04T05:27:30;99820.33;;;16.18;45.60
83815;BME280;73829;53.826;-3.034;2023-12-04T05:30:01;99820.26;;;16.20;45.61
83815;BME280;73829;53.826;-3.034;2023-12-04T05:32:32;99816.12;;;16.18;45.68
83815;BME280;73829;53.826;-3.034;2023-12-04T05:35:04;99818.08;;;16.18;45.68
83815;BME280;73829;53.826;-3.034;2023-12-04T05:37:35;99815.14;;;16.17;45.71
83815;BME280;73829;53.826;-3.034;2023-12-04T05:40:08;99815.71;;;16.16;45.61
83815;BME280;73829;53.826;-3.034;2023-12-04T05:42:40;99812.73;;;16.16;45.76
83815;BME280;73829;53.826;-3.034;2023-12-04T05:45:11;99808.56;;;16.15;45.69
83815;BME280;73829;53.826;-3.034;2023-12-04T05:47:42;99807.15;;;16.15;45.59
83815;BME280;73829;53.826;-3.034;2023-12-04T05:50:13;99800.52;;;16.14;45.75
83815;BME280;73829;53.826;-3.034;2023-12-04T05:52:44;99795.67;;;16.13;45.58
83815;BME280;73829;53.826;-3.034;2023-12-04T05:55:15;99788.64;;;16.13;45.66
83815;BME280;73829;53.826;-3.034;2023-12-04T05:57:46;99789.16;;;16.13;45.71
83815;BME280;73829;53.826;-3.034;2023-12-04T06:00:18;99783.07;;;16.13;45.58
83815;BME280;73829;53.826;-3.034;2023-12-04T06:02:49;99776.93;;;16.13;45.70
83815;BME280;73829;53.826;-3.034;2023-12-04T06:05:20;99773.63;;;16.12;45.63
83815;BME280;73829;53.826;-3.034;2023-12-04T06:07:52;99775.56;;;16.12;45.70
83815;BME280;73829;53.826;-3.034;2023-12-04T06:10:23;99770.73;;;16.10;45.58
83815;BME280;73829;53.826;-3.034;2023-12-04T06:12:54;99765.30;;;16.10;45.54
83815;BME280;73829;53.826;-3.034;2023-12-04T06:15:23;99761.81;;;16.10;45.66
83815;BME280;73829;53.826;-3.034;2023-12-04T06:17:54;99759.46;;;16.11;45.51
83815;BME280;73829;53.826;-3.034;2023-12-04T06:20:23;99757.44;;;16.10;45.66
83815;BME280;73829;53.826;-3.034;2023-12-04T06:22:55;99754.97;;;16.10;45.60
83815;BME280;73829;53.826;-3.034;2023-12-04T06:25:27;99756.13;;;16.08;45.67
83815;BME280;73829;53.826;-3.034;2023-12-04T06:27:59;99758.48;;;16.07;45.64
83815;BME280;73829;53.826;-3.034;2023-12-04T06:30:31;99759.01;;;16.06;45.64
83815;BME280;73829;53.826;-3.034;2023-12-04T06:33:03;99757.48;;;16.05;45.61
83815;BME280;73829;53.826;-3.034;2023-12-04T06:35:35;99755.41;;;16.05;45.59
83815;BME280;73829;53.826;-3.034;2023-12-04T06:38:08;99753.38;;;16.03;45.68
83815;BME280;73829;53.826;-3.034;2023-12-04T06:40:40;99752.16;;;16.03;45.70
83815;BME280;73829;53.826;-3.034;2023-12-04T06:43:12;99754.65;;;16.03;45.62
83815;BME280;73829;53.826;-3.034;2023-12-04T06:45:46;99750.46;;;16.02;45.64
83815;BME280;73829;53.826;-3.034;2023-12-04T06:48:17;99747.14;;;16.01;45.63
83815;BME280;73829;53.826;-3.034;2023-12-04T06:50:48;99746.48;;;16.01;45.69
83815;BME280;73829;53.826;-3.034;2023-12-04T06:53:19;99746.32;;;16.01;45.64
83815;BME280;73829;53.826;-3.034;2023-12-04T06:55:48;99747.05;;;16.00;45.58
83815;BME280;73829;53.826;-3.034;2023-12-04T06:58:19;99746.81;;;16.01;45.56
83815;BME280;73829;53.826;-3.034;2023-12-04T07:00:48;99745.31;;;16.00;45.72
83815;BME280;73829;53.826;-3.034;2023-12-04T07:03:19;99744.76;;;16.01;45.63
83815;BME280;73829;53.826;-3.034;2023-12-04T07:05:51;99743.29;;;15.98;45.62
83815;BME280;73829;53.826;-3.034;2023-12-04T07:08:22;99743.67;;;15.97;45.67
83815;BME280;73829;53.826;-3.034;2023-12-04T07:10:53;99744.94;;;15.97;45.54
83815;BME280;73829;53.826;-3.034;2023-12-04T07:13:24;99740.79;;;15.95;45.69
83815;BME280;73829;53.826;-3.034;2023-12-04T07:15:53;99740.79;;;15.96;45.71
83815;BME280;73829;53.826;-3.034;2023-12-04T07:18:24;99740.42;;;15.96;45.63
83815;BME280;73829;53.826;-3.034;2023-12-04T07:20:55;99738.71;;;15.95;45.60
83815;BME280;73829;53.826;-3.034;2023-12-04T07:23:26;99740.08;;;15.95;45.59
83815;BME280;73829;53.826;-3.034;2023-12-04T07:25:56;99737.08;;;15.96;45.84
83815;BME280;73829;53.826;-3.034;2023-12-04T07:28:26;99732.89;;;15.99;45.61
83815;BME280;73829;53.826;-3.034;2023-12-04T07:30:57;99735.64;;;16.00;45.78
83815;BME280;73829;53.826;-3.034;2023-12-04T07:33:29;99732.23;;;16.02;45.79
83815;BME280;73829;53.826;-3.034;2023-12-04T07:35:58;99730.02;;;16.04;45.89
83815;BME280;73829;53.826;-3.034;2023-12-04T07:38:29;99730.86;;;16.08;45.90
83815;BME280;73829;53.826;-3.034;2023-12-04T07:40:58;99729.77;;;16.08;45.89
83815;BME280;73829;53.826;-3.034;2023-12-04T07:43:29;99727.30;;;16.12;45.76
83815;BME280;73829;53.826;-3.034;2023-12-04T07:45:58;99729.73;;;16.13;45.89
83815;BME280;73829;53.826;-3.034;2023-12-04T07:48:29;99721.17;;;16.15;46.07
83815;BME280;73829;53.826;-3.034;2023-12-04T07:51:00;99728.59;;;16.14;46.03
83815;BME280;73829;53.826;-3.034;2023-12-04T07:53:31;99725.86;;;16.13;46.22
83815;BME280;73829;53.826;-3.034;2023-12-04T07:56:04;99727.95;;;16.13;46.45
83815;BME280;73829;53.826;-3.034;2023-12-04T07:58:35;99732.30;;;16.14;46.49
83815;BME280;73829;53.826;-3.034;2023-12-04T08:01:05;99734.19;;;16.15;46.55
83815;BME280;73829;53.826;-3.034;2023-12-04T08:03:36;99732.14;;;16.17;46.47
83815;BME280;73829;53.826;-3.034;2023-12-04T08:06:08;99738.07;;;16.17;46.33
83815;BME280;73829;53.826;-3.034;2023-12-04T08:08:39;99734.65;;;16.19;46.49
83815;BME280;73829;53.826;-3.034;2023-12-04T08:11:12;99737.91;;;16.20;46.42
83815;BME280;73829;53.826;-3.034;2023-12-04T08:13:43;99734.65;;;16.23;46.45
83815;BME280;73829;53.826;-3.034;2023-12-04T08:16:17;99731.77;;;16.24;46.44
83815;BME280;73829;53.826;-3.034;2023-12-04T08:18:49;99730.96;;;16.26;46.46
83815;BME280;73829;53.826;-3.034;2023-12-04T08:21:19;99735.30;;;16.27;46.46
83815;BME280;73829;53.826;-3.034;2023-12-04T08:23:50;99738.50;;;16.30;46.46
83815;BME280;73829;53.826;-3.034;2023-12-04T08:26:24;99732.55;;;16.29;46.44
83815;BME280;73829;53.826;-3.034;2023-12-04T08:28:55;99733.60;;;16.29;46.51
83815;BME280;73829;53.826;-3.034;2023-12-04T08:31:26;99735.86;;;16.30;46.64
83815;BME280;73829;53.826;-3.034;2023-12-04T08:33:58;99744.58;;;16.31;46.60
83815;BME280;73829;53.826;-3.034;2023-12-04T08:36:29;99746.98;;;16.31;46.76
83815;BME280;73829;53.826;-3.034;2023-12-04T08:38:58;99748.73;;;16.32;46.87
83815;BME280;73829;53.826;-3.034;2023-12-04T08:41:29;99751.25;;;16.34;46.87
83815;BME280;73829;53.826;-3.034;2023-12-04T08:44:00;99750.42;;;16.33;46.87
83815;BME280;73829;53.826;-3.034;2023-12-04T08:46:31;99750.25;;;16.33;47.02
83815;BME280;73829;53.826;-3.034;2023-12-04T08:49:00;99753.41;;;16.33;47.03
83815;BME280;73829;53.826;-3.034;2023-12-04T08:51:31;99755.62;;;16.34;47.02
83815;BME280;73829;53.826;-3.034;2023-12-04T08:54:00;99758.27;;;16.31;46.43
83815;BME280;73829;53.826;-3.034;2023-12-04T08:56:32;99757.70;;;16.28;46.27
83815;BME280;73829;53.826;-3.034;2023-12-04T08:59:01;99760.49;;;16.25;46.73
83815;BME280;73829;53.826;-3.034;2023-12-04T09:01:32;99756.60;;;16.26;46.79
83815;BME280;73829;53.826;-3.034;2023-12-04T09:04:01;99760.92;;;16.24;46.93
83815;BME280;73829;53.826;-3.034;2023-12-04T09:06:33;99756.83;;;16.25;47.13
83815;BME280;73829;53.826;-3.034;2023-12-04T09:09:02;99761.42;;;16.24;47.21
83815;BME280;73829;53.826;-3.034;2023-12-04T09:11:33;99759.58;;;16.26;47.20
83815;BME280;73829;53.826;-3.034;2023-12-04T09:14:04;99755.73;;;16.25;47.46
83815;BME280;73829;53.826;-3.034;2023-12-04T09:16:35;99759.23;;;16.26;47.49
83815;BME280;73829;53.826;-3.034;2023-12-04T09:19:06;99759.06;;;16.26;47.68
83815;BME280;73829;53.826;-3.034;2023-12-04T09:21:36;99756.79;;;16.25;47.56
83815;BME280;73829;53.826;-3.034;2023-12-04T09:24:07;99756.01;;;16.27;47.53
83815;BME280;73829;53.826;-3.034;2023-12-04T09:26:38;99752.20;;;16.26;47.68
83815;BME280;73829;53.826;-3.034;2023-12-04T09:29:07;99757.80;;;16.27;47.55
83815;BME280;73829;53.826;-3.034;2023-12-04T09:31:38;99755.05;;;16.28;47.64
83815;BME280;73829;53.826;-3.034;2023-12-04T09:34:07;99754.16;;;16.29;47.51
83815;BME280;73829;53.826;-3.034;2023-12-04T09:36:38;99751.06;;;16.31;47.49
83815;BME280;73829;53.826;-3.034;2023-12-04T09:39:10;99748.77;;;16.31;47.35
83815;BME280;73829;53.826;-3.034;2023-12-04T09:41:39;99753.27;;;16.32;47.37
83815;BME280;73829;53.826;-3.034;2023-12-04T09:44:11;99753.94;;;16.36;47.33
83815;BME280;73829;53.826;-3.034;2023-12-04T09:46:42;99751.65;;;16.36;47.31
83815;BME280;73829;53.826;-3.034;2023-12-04T09:49:14;99757.73;;;16.41;47.31
83815;BME280;73829;53.826;-3.034;2023-12-04T09:51:46;99763.42;;;16.46;47.48
83815;BME280;73829;53.826;-3.034;2023-12-04T09:54:18;99759.67;;;16.51;47.42
83815;BME280;73829;53.826;-3.034;2023-12-04T09:56:50;99766.70;;;16.57;47.42
83815;BME280;73829;53.826;-3.034;2023-12-04T09:59:25;99765.20;;;16.62;47.32
83815;BME280;73829;53.826;-3.034;2023-12-04T10:01:56;99768.52;;;16.66;47.30
83815;BME280;73829;53.826;-3.034;2023-12-04T10:04:27;99771.17;;;16.72;47.14
83815;BME280;73829;53.826;-3.034;2023-12-04T10:06:58;99771.13;;;16.76;47.26
83815;BME280;73829;53.826;-3.034;2023-12-04T10:09:29;99773.84;;;16.82;47.14
83815;BME280;73829;53.826;-3.034;2023-12-04T10:11:58;99773.70;;;16.84;47.04
83815;BME280;73829;53.826;-3.034;2023-12-04T10:14:30;99777.14;;;16.86;46.88
83815;BME280;73829;53.826;-3.034;2023-12-04T10:16:59;99782.77;;;16.85;46.87
83815;BME280;73829;53.826;-3.034;2023-12-04T10:19:30;99785.51;;;16.87;46.73
83815;BME280;73829;53.826;-3.034;2023-12-04T10:22:01;99787.02;;;16.84;46.82
83815;BME280;73829;53.826;-3.034;2023-12-04T10:24:36;99791.72;;;16.85;46.97
83815;BME280;73829;53.826;-3.034;2023-12-04T10:27:09;99791.92;;;16.88;47.08
83815;BME280;73829;53.826;-3.034;2023-12-04T10:29:45;99786.84;;;16.91;47.06
83815;BME280;73829;53.826;-3.034;2023-12-04T10:32:19;99784.92;;;16.94;47.01
83815;BME280;73829;53.826;-3.034;2023-12-04T10:34:50;99786.20;;;16.96;46.93
83815;BME280;73829;53.826;-3.034;2023-12-04T10:37:21;99786.27;;;16.98;47.01
83815;BME280;73829;53.826;-3.034;2023-12-04T10:39:54;99787.02;;;17.01;47.10
83815;BME280;73829;53.826;-3.034;2023-12-04T10:42:24;99785.86;;;17.02;46.92
83815;BME280;73829;53.826;-3.034;2023-12-04T10:44:57;99787.10;;;17.06;46.88
83815;BME280;73829;53.826;-3.034;2023-12-04T10:47:30;99789.52;;;17.06;46.90
83815;BME280;73829;53.826;-3.034;2023-12-04T10:50:01;99784.20;;;17.07;46.85
83815;BME280;73829;53.826;-3.034;2023-12-04T10:52:33;99782.71;;;17.08;46.94
83815;BME280;73829;53.826;-3.034;2023-12-04T10:55:05;99784.94;;;17.10;47.09
83815;BME280;73829;53.826;-3.034;2023-12-04T10:57:39;99780.30;;;17.11;46.92
83815;BME280;73829;53.826;-3.034;2023-12-04T11:00:13;99777.80;;;17.12;46.90
83815;BME280;73829;53.826;-3.034;2023-12-04T11:02:47;99777.42;;;17.12;46.87
83815;BME280;73829;53.826;-3.034;2023-12-04T11:05:20;99774.29;;;17.11;46.81
83815;BME280;73829;53.826;-3.034;2023-12-04T11:07:53;99775.75;;;17.10;46.88
83815;BME280;73829;53.826;-3.034;2023-12-04T11:10:25;99776.62;;;17.11;46.79
83815;BME280;73829;53.826;-3.034;2023-12-04T11:13:02;99775.69;;;17.12;46.65
83815;BME280;73829;53.826;-3.034;2023-12-04T11:15:38;99773.91;;;17.12;46.79
83815;BME280;73829;53.826;-3.034;2023-12-04T11:18:13;99775.22;;;17.14;46.70
83815;BME280;73829;53.826;-3.034;2023-12-04T11:20:51;99769.73;;;17.15;46.64
83815;BME280;73829;53.826;-3.034;2023-12-04T11:23:22;99768.40;;;17.17;46.74
83815;BME280;73829;53.826;-3.034;2023-12-04T11:25:54;99765.89;;;17.18;46.77
83815;BME280;73829;53.826;-3.034;2023-12-04T11:28:26;99761.40;;;17.19;46.63
83815;BME280;73829;53.826;-3.034;2023-12-04T11:30:58;99764.98;;;17.21;46.74
83815;BME280;73829;53.826;-3.034;2023-12-04T11:33:35;99762.84;;;17.22;46.72
83815;BME280;73829;53.826;-3.034;2023-12-04T11:36:12;99763.66;;;17.22;46.72
83815;BME280;73829;53.826;-3.034;2023-12-04T11:38:46;99766.05;;;17.24;46.68
83815;BME280;73829;53.826;-3.034;2023-12-04T11:41:20;99765.75;;;17.23;46.27
83815;BME280;73829;53.826;-3.034;2023-12-04T11:43:51;99763.14;;;17.23;46.50
83815;BME280;73829;53.826;-3.034;2023-12-04T11:46:24;99762.39;;;17.23;46.47
83815;BME280;73829;53.826;-3.034;2023-12-04T11:48:57;99759.36;;;17.24;46.47
83815;BME280;73829;53.826;-3.034;2023-12-04T11:51:48;99756.83;;;17.25;46.49
83815;BME280;73829;53.826;-3.034;2023-12-04T11:54:22;99754.16;;;17.26;46.67
83815;BME280;73829;53.826;-3.034;2023-12-04T11:59:49;99751.88;;;17.29;46.53
83815;BME280;73829;53.826;-3.034;2023-12-04T12:02:21;99752.89;;;17.29;46.52
83815;BME280;73829;53.826;-3.034;2023-12-04T12:04:55;99749.80;;;17.31;46.58
83815;BME280;73829;53.826;-3.034;2023-12-04T12:07:26;99749.75;;;17.32;46.68
83815;BME280;73829;53.826;-3.034;2023-12-04T12:09:57;99750.21;;;17.33;46.56
83815;BME280;73829;53.826;-3.034;2023-12-04T12:12:29;99750.85;;;17.34;46.62
83815;BME280;73829;53.826;-3.034;2023-12-04T12:15:01;99753.77;;;17.36;46.60
83815;BME280;73829;53.826;-3.034;2023-12-04T12:17:30;99753.67;;;17.37;46.61
83815;BME280;73829;53.826;-3.034;2023-12-04T12:20:01;99754.09;;;17.39;46.66
83815;BME280;73829;53.826;-3.034;2023-12-04T12:22:36;99756.02;;;17.40;46.67
83815;BME280;73829;53.826;-3.034;2023-12-04T12:25:11;99759.48;;;17.41;46.69
83815;BME280;73829;53.826;-3.034;2023-12-04T12:27:42;99759.97;;;17.41;46.62
83815;BME280;73829;53.826;-3.034;2023-12-04T12:30:13;99760.44;;;17.42;46.68
83815;BME280;73829;53.826;-3.034;2023-12-04T12:32:44;99763.89;;;17.43;46.76
83815;BME280;73829;53.826;-3.034;2023-12-04T12:35:15;99764.34;;;17.45;46.60
83815;BME280;73829;53.826;-3.034;2023-12-04T12:37:44;99765.54;;;17.45;46.68
83815;BME280;73829;53.826;-3.034;2023-12-04T12:40:16;99768.02;;;17.48;46.67
83815;BME280;73829;53.826;-3.034;2023-12-04T12:42:45;99762.77;;;17.47;46.60
83815;BME280;73829;53.826;-3.034;2023-12-04T12:45:17;99763.61;;;17.48;46.59
83815;BME280;73829;53.826;-3.034;2023-12-04T12:47:48;99763.63;;;17.48;46.62
83815;BME280;73829;53.826;-3.034;2023-12-04T12:50:19;99759.77;;;17.48;46.75
83815;BME280;73829;53.826;-3.034;2023-12-04T12:52:50;99761.67;;;17.48;46.73
83815;BME280;73829;53.826;-3.034;2023-12-04T12:55:23;99760.44;;;17.48;46.72
83815;BME280;73829;53.826;-3.034;2023-12-04T12:57:56;99760.14;;;17.50;46.65
83815;BME280;73829;53.826;-3.034;2023-12-04T13:00:28;99760.88;;;17.50;46.68
83815;BME280;73829;53.826;-3.034;2023-12-04T13:02:59;99758.55;;;17.50;46.65
83815;BME280;73829;53.826;-3.034;2023-12-04T13:05:31;99756.76;;;17.51;46.84
83815;BME280;73829;53.826;-3.034;2023-12-04T13:08:02;99754.81;;;17.51;46.68
83815;BME280;73829;53.826;-3.034;2023-12-04T13:10:32;99754.06;;;17.52;46.72